Detall de PIREP

Printer-friendly versionPDF version

[2012/01/11 15:56:00]
Flight IATA:CT2108
Pilot Number:044
Company ICAO:CAT
Aircraft Type:AT72/F
PAX:45
Departing Airport: LEVC
Destination Airport: LEMG
Alternate Airport:LEAM
Online: VATSIM
Route:ASTRO B28 VIBAS
Flight Level:F230
No Slew and time accel
No pause
Crash detect
Detect pilot in Cockpit between each 30 and 45 minutes
15:56 Zero fuel Weight: 39664 Lbs, Fuel Weight: 4402 Lbs
15:56 VATSIM:LEVC 111530Z 20003KT 140V250 CAVOK 18/02 Q1020 NOSIG
15:56 VATSIM:LEMG 111530Z 31010KT 9999 FEW040 19/08 Q1021 NOSIG
15:56 VOICE CATALONIAN
15:57 Parking Brakes off
16:04 Take-off
16:04 Take off Weight: 43992 Lbs
16:04 Wind: 209º @ 003 Knots Heading: 116º
16:04 POS N39º 29´ 25´´ W000º 29´ 05´´
16:04 Flaps:1 at 145 Knots
16:04 Gear Up: 149 Knots
16:04 Flaps:0 at 156 Knots
16:19 Wind:258º@004 Knots Heading: 230º Ground Speed: 184 Knots Altitude 19730 ft
16:22 TOC
16:22 Fuel Weight: 3701 Lb
16:34 Wind:302º@033 Knots Heading: 238º Ground Speed: 266 Knots Altitude 23248 ft
16:46 TOD
16:46 Fuel Weight: 2943 Lb
16:49 Wind:281º@012 Knots Heading: 228º Ground Speed: 252 Knots Altitude 19343 ft
17:04 Wind:271º@014 Knots Heading: 237º Ground Speed: 237 Knots Altitude 14255 ft
17:19 Wind:320º@006 Knots Heading: 313º Ground Speed: 167 Knots Altitude 2007 ft
17:22 Gear Down: 159 Knots
17:22 Flaps:1 at 155 Knots
17:23 Flaps:2 at 145 Knots
17:25 TouchDown:Rate -123 ft/min Speed: 123 Knots
17:25 VATSIM:LEMG 111700Z 32007KT 9999 FEW040 17/09 Q1021 NOSIG
17:25 Land
17:25 Wind:324º@007 Knots
17:25 Heading: 309º
17:25 Flight Duration: 01:21
17:25 Landing Weight: 42115 Lbs
17:25 POS N36º 40´ 35´´ W004º 30´ 04´´
17:28 Parking brakes on
17:28 Block to Block Duration: 01:31
17:28 Final Fuel: 2431 Lbls
17:28 Spent Fuel: 1970 Lbls
17:28 Flight Length: 308 NM
17:28 TOD Land Length: 138 NM

Exportar CSV

Powered by Drupal - Modified by Danger4k